Bremerton, WA (98310)

1:27 AM PST on January 22, 2017 (GMT -0800)
Old Middle School | | Change Station

Elev 302 ft 47.59 °N, 122.62 °W | Updated 1 second ago

Overcast
Overcast
42.5 °F
Feels Like 42 °F
N
1.0
Wind Variable Wind from ESE

Today
High -- | Low -- °F
--% Chance of Precip.
Yesterday
High -- | Low -- °F
Precip. -- in
Pressure 29.61 in
Visibility 7.0 miles
Clouds Mostly Cloudy 2300 ft
Overcast 3100 ft
Windchill 42 °F
Dew Point 41 °F
Humidity 96%
Rainfall 0.00 in
Snow Depth Not available.
7:47 AM 4:56 PM
Waning Crescent, 28% visible
METAR KPWT 220915Z 00000KT 7SM BKN023 OVC031 05/05 A2961 RMK AO1
Pressure 29.61 in
Visibility 7.0 miles
Clouds Mostly Cloudy 2300 ft
Overcast 3100 ft
Windchill 42 °F
Dew Point 41 °F
Humidity 96%
Rainfall 0.00 in
Snow Depth Not available.
7:47 AM 4:56 PM
Waning Crescent, 28% visible
METAR KPWT 220915Z 00000KT 7SM BKN023 OVC031 05/05 A2961 RMK AO1

Get Your Daily Forecast Email!

Thanks for signing up!

Be on the lookout for a verification email in your inbox.

You'll start receiving the daily forecast at 8 AM.

×

10-Day Weather Forecast

Almanac

Astronomy

Jan. 22, 2017 Rise Set
Actual Time
Civil Twilight
Nautical Twilight
Astronomical Twilight
Moon
Length of Visible Light
Length of Day
Tomorrow will be .
, % of the Moon is Illuminated

Today's Extremes

State Highs State Lows

Community

WunderPhotos

Upload Photos

1,962,540 photos uploaded!

WunderBlog® & News

Nearby

Air Quality

  Air Quality AQ Index Pollutant
Not available.

Snow Depth

Station Depth Elevation

Earthquake Activity

City Distance Mag. Time & Date
Minimum magnitude displayed is 2.5.

Coastal Water Temperatures

Place Temperature

Stations

Nearby Weather Stations

Station Location Temp. Windchill Dew Point Humidity Wind Precip. Elev Updated Type
                   

Watches & Warnings

There are currently no watches in effect.